createdAt,value
2022-08-20T00:00:57.765Z,18.27
2022-08-20T00:04:03.803Z,18.27
2022-08-20T00:07:08.509Z,18.31
2022-08-20T00:10:10.393Z,18.31
2022-08-20T00:13:15.483Z,18.36
2022-08-20T00:16:22.962Z,18.35
2022-08-20T00:19:24.642Z,18.36
2022-08-20T00:22:28.793Z,18.38
2022-08-20T00:25:30.739Z,18.40
2022-08-20T00:28:32.659Z,18.42
2022-08-20T00:31:35.565Z,18.46
2022-08-20T00:34:39.792Z,18.46
2022-08-20T00:37:42.132Z,18.49
2022-08-20T00:40:53.964Z,18.54
2022-08-20T00:44:04.586Z,18.56
2022-08-20T00:47:06.417Z,18.53
2022-08-20T00:50:08.764Z,18.54
2022-08-20T00:53:10.459Z,18.53
2022-08-20T00:56:12.946Z,18.55
2022-08-20T00:59:18.907Z,18.54
2022-08-20T01:02:23.342Z,18.55
2022-08-20T01:05:27.869Z,18.55
2022-08-20T01:08:31.852Z,18.54
2022-08-20T01:11:37.051Z,18.56
2022-08-20T01:14:47.613Z,18.59
2022-08-20T01:17:53.318Z,18.60
2022-08-20T01:20:59.607Z,18.62
2022-08-20T01:24:06.817Z,18.62
2022-08-20T01:27:09.220Z,18.64
2022-08-20T01:30:11.704Z,18.63
2022-08-20T01:33:13.576Z,18.61
2022-08-20T01:36:18.810Z,18.64
2022-08-20T01:39:26.603Z,18.64
2022-08-20T01:42:37.773Z,18.64
2022-08-20T01:45:59.261Z,18.61
2022-08-20T01:49:11.853Z,18.64
2022-08-20T01:52:24.598Z,18.62
2022-08-20T01:55:29.524Z,18.62
2022-08-20T01:58:33.611Z,18.61
2022-08-20T02:01:46.244Z,18.62
2022-08-20T02:04:48.616Z,18.61
2022-08-20T02:07:50.515Z,18.62
2022-08-20T02:10:52.528Z,18.62
2022-08-20T02:13:54.684Z,18.61
2022-08-20T02:16:58.582Z,18.60
2022-08-20T02:20:13.362Z,18.56
2022-08-20T02:23:16.267Z,18.53
2022-08-20T02:26:19.235Z,18.54
2022-08-20T02:29:20.929Z,18.53
2022-08-20T02:32:24.162Z,18.53
2022-08-20T02:35:36.041Z,18.53
2022-08-20T02:38:38.953Z,18.52
2022-08-20T02:41:41.498Z,18.53
2022-08-20T02:44:43.566Z,18.51
2022-08-20T02:47:46.471Z,18.49
2022-08-20T02:50:55.308Z,18.47
2022-08-20T02:53:57.084Z,18.43
2022-08-20T02:56:58.700Z,18.43
2022-08-20T03:00:02.107Z,18.43
2022-08-20T03:03:04.080Z,18.43
2022-08-20T03:06:08.016Z,18.44
2022-08-20T03:09:09.681Z,18.40
2022-08-20T03:12:11.383Z,18.41
2022-08-20T03:15:17.582Z,18.39
2022-08-20T03:18:20.667Z,18.41
2022-08-20T03:21:22.289Z,18.40
2022-08-20T03:24:23.901Z,18.38
2022-08-20T03:27:25.657Z,18.39
2022-08-20T03:30:32.598Z,18.38
2022-08-20T03:33:34.911Z,18.40
2022-08-20T03:36:36.572Z,18.44
2022-08-20T03:39:39.199Z,18.44
2022-08-20T03:42:41.254Z,18.43
2022-08-20T03:45:44.762Z,18.46
2022-08-20T03:48:46.405Z,18.44
2022-08-20T03:51:57.686Z,18.46
2022-08-20T03:55:00.012Z,18.48
2022-08-20T03:58:06.272Z,18.49
2022-08-20T04:01:32.053Z,18.47
2022-08-20T04:04:29.556Z,18.45
2022-08-20T04:07:31.174Z,18.44
2022-08-20T04:10:32.827Z,18.42
2022-08-20T04:13:34.829Z,18.42
2022-08-20T04:16:41.827Z,18.41
2022-08-20T04:19:44.447Z,18.39
2022-08-20T04:22:50.861Z,18.36
2022-08-20T04:26:01.496Z,18.39
2022-08-20T04:29:03.771Z,18.40
2022-08-20T04:32:06.226Z,18.39
2022-08-20T04:35:11.759Z,18.41
2022-08-20T04:38:17.347Z,18.38
2022-08-20T04:41:23.658Z,18.34
2022-08-20T04:44:25.694Z,18.32
2022-08-20T04:47:34.614Z,18.32
2022-08-20T04:50:39.229Z,18.33
2022-08-20T04:53:41.913Z,18.33
2022-08-20T04:56:43.628Z,18.33
2022-08-20T04:59:45.307Z,18.34
2022-08-20T05:02:46.888Z,18.37
2022-08-20T05:05:49.069Z,18.39
2022-08-20T05:08:50.744Z,18.43
2022-08-20T05:11:52.404Z,18.43
2022-08-20T05:14:54.279Z,18.44
2022-08-20T05:18:02.505Z,18.45
2022-08-20T05:21:05.990Z,18.45
2022-08-20T05:24:08.263Z,18.48
2022-08-20T05:27:10.215Z,18.51
2022-08-20T05:30:33.492Z,18.57
2022-08-20T05:33:37.954Z,18.60
2022-08-20T05:36:41.840Z,18.63
2022-08-20T05:39:44.406Z,18.67
2022-08-20T05:42:46.010Z,18.71
2022-08-20T05:45:56.538Z,18.77
2022-08-20T05:49:00.032Z,18.79
2022-08-20T05:52:01.986Z,18.86
2022-08-20T05:55:05.923Z,18.90
2022-08-20T05:58:14.791Z,18.92
2022-08-20T06:01:16.564Z,18.92
2022-08-20T06:04:32.086Z,18.98
2022-08-20T06:07:33.765Z,19.02
2022-08-20T06:10:36.899Z,19.07
2022-08-20T06:13:39.138Z,19.11
2022-08-20T06:16:57.364Z,19.23
2022-08-20T06:20:02.962Z,19.29
2022-08-20T06:23:05.871Z,19.34
2022-08-20T06:26:09.259Z,19.40
2022-08-20T06:29:11.360Z,19.46
2022-08-20T06:32:13.263Z,19.56
2022-08-20T06:35:19.444Z,19.64
2022-08-20T06:38:21.696Z,19.67
2022-08-20T06:41:23.373Z,19.73
2022-08-20T06:44:38.069Z,19.81
2022-08-20T06:47:44.894Z,19.93
2022-08-20T06:50:47.523Z,20.03
2022-08-20T06:53:49.734Z,20.12
2022-08-20T06:56:54.138Z,20.21
2022-08-20T06:59:55.814Z,20.34
2022-08-20T07:03:00.485Z,20.45
2022-08-20T07:06:02.172Z,20.60
2022-08-20T07:09:03.931Z,20.74
2022-08-20T07:12:06.404Z,20.87
2022-08-20T07:15:10.989Z,20.97
2022-08-20T07:18:13.997Z,21.02
2022-08-20T07:21:17.456Z,21.15
2022-08-20T07:24:19.271Z,21.34
2022-08-20T07:27:23.048Z,21.42
2022-08-20T07:30:56.895Z,21.51
2022-08-20T07:33:59.877Z,21.54
2022-08-20T07:37:04.061Z,21.68
2022-08-20T07:40:07.288Z,21.79
2022-08-20T07:43:10.700Z,21.81
2022-08-20T07:46:17.994Z,21.80
2022-08-20T07:49:22.581Z,21.64
2022-08-20T07:52:24.138Z,21.54
2022-08-20T07:55:26.241Z,21.48
2022-08-20T07:58:33.186Z,21.45
2022-08-20T08:01:35.242Z,21.40
2022-08-20T08:04:37.146Z,21.35
2022-08-20T08:07:39.429Z,21.37
2022-08-20T08:10:47.532Z,21.38
2022-08-20T08:14:05.319Z,21.37
2022-08-20T08:17:08.023Z,21.38
2022-08-20T08:20:12.295Z,21.36
2022-08-20T08:23:24.676Z,21.28
2022-08-20T08:26:33.294Z,21.21
2022-08-20T08:29:36.201Z,21.14
2022-08-20T08:32:58.458Z,21.09
2022-08-20T08:36:12.915Z,21.09
2022-08-20T08:39:14.572Z,21.09
2022-08-20T08:42:27.069Z,21.09
2022-08-20T08:45:38.074Z,21.07
2022-08-20T08:48:47.158Z,21.07
2022-08-20T08:51:51.526Z,21.03
2022-08-20T08:54:56.900Z,21.01
2022-08-20T08:58:16.529Z,20.99
2022-08-20T09:01:53.729Z,20.97
2022-08-20T09:04:44.681Z,20.92
2022-08-20T09:07:51.209Z,20.96
2022-08-20T09:10:55.581Z,20.95
2022-08-20T09:13:58.596Z,21.03
2022-08-20T09:17:00.210Z,21.15
2022-08-20T09:20:02.141Z,21.28
2022-08-20T09:23:06.780Z,21.37
2022-08-20T09:26:09.059Z,21.44
2022-08-20T09:29:10.927Z,21.54
2022-08-20T09:32:21.048Z,21.64
2022-08-20T09:35:23.031Z,21.65
2022-08-20T09:38:24.681Z,21.75
2022-08-20T09:41:26.344Z,21.87
2022-08-20T09:44:27.964Z,22.10
2022-08-20T09:47:29.631Z,22.27
2022-08-20T09:50:33.863Z,22.36
2022-08-20T09:53:35.811Z,22.28
2022-08-20T09:56:37.472Z,22.24
2022-08-20T09:59:39.467Z,22.28
2022-08-20T10:02:41.771Z,22.29
2022-08-20T10:05:43.396Z,22.27
2022-08-20T10:08:45.867Z,22.24
2022-08-20T10:11:47.547Z,22.28
2022-08-20T10:14:49.206Z,22.33
2022-08-20T10:17:51.021Z,22.44
2022-08-20T10:20:52.778Z,22.53
2022-08-20T10:23:54.420Z,22.60
2022-08-20T10:26:58.701Z,22.59
2022-08-20T10:30:00.310Z,22.47
2022-08-20T10:33:02.156Z,22.36
2022-08-20T10:36:21.959Z,22.21
2022-08-20T10:39:23.655Z,22.10
2022-08-20T10:42:25.314Z,21.89
2022-08-20T10:45:26.941Z,21.62
2022-08-20T10:48:29.562Z,21.35
2022-08-20T10:51:32.660Z,21.08
2022-08-20T10:54:34.602Z,20.75
2022-08-20T10:57:39.395Z,20.51
2022-08-20T11:00:41.720Z,20.37
2022-08-20T11:06:45.015Z,20.07
2022-08-20T11:09:48.803Z,20.05
2022-08-20T11:12:50.457Z,20.02
2022-08-20T11:15:52.093Z,20.01
2022-08-20T11:18:53.713Z,20.09
2022-08-20T11:21:56.266Z,20.08
2022-08-20T11:24:57.874Z,20.12
2022-08-20T11:27:59.587Z,20.17
2022-08-20T11:31:01.876Z,20.25
2022-08-20T11:34:03.543Z,20.38
2022-08-20T11:37:05.187Z,20.52
2022-08-20T11:40:12.331Z,20.57
2022-08-20T11:43:16.407Z,20.67
2022-08-20T11:46:18.810Z,20.73
2022-08-20T11:49:20.442Z,20.77
2022-08-20T11:52:22.060Z,20.82
2022-08-20T11:55:28.560Z,20.94
2022-08-20T11:58:33.787Z,21.05
2022-08-20T12:01:35.469Z,21.19
2022-08-20T12:04:37.045Z,21.23
2022-08-20T12:07:39.093Z,21.30
2022-08-20T12:10:40.740Z,21.33
2022-08-20T12:13:47.290Z,21.35
2022-08-20T12:16:49.315Z,21.34
2022-08-20T12:19:53.138Z,21.34
2022-08-20T12:22:54.744Z,21.36
2022-08-20T12:25:56.477Z,21.36
2022-08-20T12:29:00.947Z,21.36
2022-08-20T12:32:03.381Z,21.42
2022-08-20T12:35:07.307Z,21.38
2022-08-20T12:38:09.007Z,21.39
2022-08-20T12:41:11.862Z,21.35
2022-08-20T12:44:13.548Z,21.23
2022-08-20T12:47:27.419Z,21.20
2022-08-20T12:50:31.596Z,21.33
2022-08-20T12:53:33.509Z,21.50
2022-08-20T12:56:36.191Z,21.67
2022-08-20T12:59:37.781Z,21.74
2022-08-20T13:02:41.225Z,21.78
2022-08-20T13:05:43.074Z,21.71
2022-08-20T13:08:44.660Z,21.61
2022-08-20T13:11:46.389Z,21.59
2022-08-20T13:14:48.001Z,21.56
2022-08-20T13:17:57.470Z,21.64
2022-08-20T13:20:59.057Z,21.69
2022-08-20T13:24:00.716Z,21.77
2022-08-20T13:27:13.085Z,21.90
2022-08-20T13:30:20.126Z,21.98
2022-08-20T13:33:21.931Z,21.97
2022-08-20T13:36:23.611Z,22.08
2022-08-20T13:39:25.303Z,22.13
2022-08-20T13:42:28.071Z,21.96
2022-08-20T13:45:29.646Z,21.75
2022-08-20T13:48:31.255Z,21.73
2022-08-20T13:51:32.835Z,21.70
2022-08-20T13:54:34.644Z,21.71
2022-08-20T13:57:36.812Z,21.76
2022-08-20T14:00:38.479Z,21.84
2022-08-20T14:03:42.783Z,21.85
2022-08-20T14:06:44.467Z,21.80
2022-08-20T14:09:49.773Z,21.75
2022-08-20T14:12:51.748Z,21.71
2022-08-20T14:15:54.166Z,21.71
2022-08-20T14:18:56.443Z,21.72
2022-08-20T14:21:58.232Z,21.74
2022-08-20T14:25:03.482Z,21.78
2022-08-20T14:28:13.868Z,21.78
2022-08-20T14:31:15.516Z,21.77
2022-08-20T14:34:17.435Z,21.76
2022-08-20T14:37:22.715Z,21.69
2022-08-20T14:40:26.841Z,21.66
2022-08-20T14:43:28.520Z,21.64
2022-08-20T14:46:30.175Z,21.64
2022-08-20T14:49:33.081Z,21.67
2022-08-20T14:52:36.651Z,21.82
2022-08-20T14:55:38.741Z,22.02
2022-08-20T14:58:40.313Z,22.13
2022-08-20T15:01:42.122Z,22.22
2022-08-20T15:04:45.414Z,22.29
2022-08-20T15:07:54.374Z,22.40
2022-08-20T15:10:56.105Z,22.35
2022-08-20T15:13:57.788Z,22.38
2022-08-20T15:16:59.402Z,22.32
2022-08-20T15:20:11.568Z,22.29
2022-08-20T15:23:23.050Z,22.31
2022-08-20T15:26:24.745Z,22.35
2022-08-20T15:29:26.343Z,22.33
2022-08-20T15:32:28.031Z,22.35
2022-08-20T15:35:29.763Z,22.32
2022-08-20T15:38:32.985Z,22.24
2022-08-20T15:41:34.739Z,22.21
2022-08-20T15:44:37.749Z,22.15
2022-08-20T15:48:06.333Z,22.14
2022-08-20T15:51:07.901Z,22.10
2022-08-20T15:54:26.205Z,22.14
2022-08-20T15:57:55.403Z,22.11
2022-08-20T16:01:24.226Z,22.08
2022-08-20T16:04:41.771Z,22.14
2022-08-20T16:08:01.374Z,22.22
2022-08-20T16:11:21.707Z,22.25
2022-08-20T16:14:31.054Z,22.24
2022-08-20T16:18:24.284Z,22.19
2022-08-20T16:21:34.634Z,22.14
2022-08-20T16:24:36.320Z,22.06
2022-08-20T16:27:52.942Z,22.01
2022-08-20T16:31:06.375Z,21.91
2022-08-20T16:34:33.164Z,21.85
2022-08-20T16:38:23.395Z,21.81
2022-08-20T16:41:38.652Z,21.78
2022-08-20T16:44:44.837Z,21.71
2022-08-20T16:47:48.119Z,21.68
2022-08-20T16:50:58.937Z,21.65
2022-08-20T16:54:00.654Z,21.63
2022-08-20T16:57:05.522Z,21.60
2022-08-20T17:00:16.322Z,21.57
2022-08-20T17:03:33.583Z,21.53
2022-08-20T17:06:49.390Z,21.51
2022-08-20T17:09:52.193Z,21.44
2022-08-20T17:13:14.801Z,21.43
2022-08-20T17:16:18.459Z,21.39
2022-08-20T17:19:29.470Z,21.40
2022-08-20T17:22:41.522Z,21.36
2022-08-20T17:25:44.522Z,21.33
2022-08-20T17:28:53.870Z,21.33
2022-08-20T17:32:21.840Z,21.32
2022-08-20T17:35:30.119Z,21.30
2022-08-20T17:38:39.892Z,21.28
2022-08-20T17:41:48.058Z,21.20
2022-08-20T17:45:05.845Z,21.17
2022-08-20T17:48:15.374Z,21.10
2022-08-20T17:51:23.568Z,21.08
2022-08-20T17:54:34.389Z,21.09
2022-08-20T17:57:40.124Z,21.05
2022-08-20T18:00:43.546Z,20.99
2022-08-20T18:03:45.205Z,21.00
2022-08-20T18:06:54.884Z,20.95
2022-08-20T18:10:10.490Z,20.93
2022-08-20T18:13:18.407Z,20.82
2022-08-20T18:16:31.251Z,20.80
2022-08-20T18:19:48.244Z,20.77
2022-08-20T18:22:57.364Z,20.69
2022-08-20T18:26:21.323Z,20.65
2022-08-20T18:29:28.254Z,20.59
2022-08-20T18:32:36.801Z,20.51
2022-08-20T18:35:45.790Z,20.46
2022-08-20T18:38:57.053Z,20.39
2022-08-20T18:41:58.711Z,20.27
2022-08-20T18:45:00.818Z,20.20
2022-08-20T18:48:03.894Z,20.15
2022-08-20T18:51:19.059Z,20.14
2022-08-20T18:54:30.687Z,20.09
2022-08-20T18:57:41.737Z,20.02
2022-08-20T19:00:48.822Z,19.98
2022-08-20T19:04:04.845Z,19.92
2022-08-20T19:07:17.502Z,19.85
2022-08-20T19:10:46.736Z,19.82
2022-08-20T19:13:53.703Z,19.73
2022-08-20T19:17:10.587Z,19.69
2022-08-20T19:20:25.455Z,19.64
2022-08-20T19:23:29.835Z,19.58
2022-08-20T19:26:39.393Z,19.54
2022-08-20T19:29:48.685Z,19.49
2022-08-20T19:32:52.917Z,19.44
2022-08-20T19:35:54.615Z,19.44
2022-08-20T19:39:00.804Z,19.43
2022-08-20T19:42:14.481Z,19.41
2022-08-20T19:45:26.003Z,19.38
2022-08-20T19:48:41.448Z,19.34
2022-08-20T19:52:08.987Z,19.29
2022-08-20T19:55:29.807Z,19.28
2022-08-20T19:58:33.245Z,19.23
2022-08-20T20:01:36.289Z,19.19
2022-08-20T20:04:41.133Z,19.18
2022-08-20T20:07:58.526Z,19.15
2022-08-20T20:11:01.053Z,19.07
2022-08-20T20:14:12.327Z,19.04
2022-08-20T20:17:23.111Z,18.99
2022-08-20T20:20:57.142Z,18.89
2022-08-20T20:24:01.088Z,18.83
2022-08-20T20:27:02.818Z,18.78
2022-08-20T20:30:12.513Z,18.72
2022-08-20T20:33:35.560Z,18.65
2022-08-20T20:36:43.928Z,18.59
2022-08-20T20:39:45.873Z,18.49
2022-08-20T20:43:07.831Z,18.44
2022-08-20T20:46:25.074Z,18.33
2022-08-20T20:49:29.387Z,18.24
2022-08-20T20:52:37.604Z,18.16
2022-08-20T20:55:39.863Z,18.06
2022-08-20T20:58:41.497Z,17.99
2022-08-20T21:01:55.384Z,17.93
2022-08-20T21:04:58.368Z,17.88
2022-08-20T21:08:02.437Z,17.86
2022-08-20T21:11:04.140Z,17.76
2022-08-20T21:14:05.844Z,17.68
2022-08-20T21:17:11.704Z,17.58
2022-08-20T21:20:13.574Z,17.51
2022-08-20T21:23:15.232Z,17.42
2022-08-20T21:26:16.832Z,17.40
2022-08-20T21:29:30.456Z,17.42
2022-08-20T21:32:33.870Z,17.36
2022-08-20T21:35:35.557Z,17.31
2022-08-20T21:38:37.215Z,17.21
2022-08-20T21:41:42.653Z,17.12
2022-08-20T21:44:49.497Z,17.08
2022-08-20T21:47:51.489Z,17.08
2022-08-20T21:50:53.087Z,17.03
2022-08-20T21:53:55.159Z,17.03
2022-08-20T21:57:18.371Z,17.00
2022-08-20T22:00:45.485Z,16.94
2022-08-20T22:03:49.507Z,16.87
2022-08-20T22:06:52.158Z,16.84
2022-08-20T22:09:53.843Z,16.78
2022-08-20T22:12:55.768Z,16.73
2022-08-20T22:15:59.431Z,16.70
2022-08-20T22:19:01.202Z,16.61
2022-08-20T22:22:03.058Z,16.58
2022-08-20T22:25:05.183Z,16.53
2022-08-20T22:28:11.945Z,16.46
2022-08-20T22:31:15.802Z,16.44
2022-08-20T22:34:19.743Z,16.41
2022-08-20T22:37:21.837Z,16.36
2022-08-20T22:40:24.247Z,16.31
2022-08-20T22:43:25.846Z,16.26
2022-08-20T22:46:32.258Z,16.20
2022-08-20T22:49:35.050Z,16.14
2022-08-20T22:52:39.222Z,16.06
2022-08-20T22:55:41.335Z,16.00
2022-08-20T22:58:43.386Z,15.98
2022-08-20T23:01:48.134Z,15.94
2022-08-20T23:04:50.111Z,15.91
2022-08-20T23:07:56.662Z,15.88
2022-08-20T23:10:58.441Z,15.82
2022-08-20T23:14:00.132Z,15.76
2022-08-20T23:17:10.122Z,15.70
2022-08-20T23:20:17.151Z,15.66
2022-08-20T23:23:19.024Z,15.60
2022-08-20T23:26:22.658Z,15.55
2022-08-20T23:29:27.146Z,15.50
2022-08-20T23:32:28.866Z,15.48
2022-08-20T23:35:33.036Z,15.46
2022-08-20T23:38:35.609Z,15.42
2022-08-20T23:41:37.243Z,15.35
2022-08-20T23:44:49.616Z,15.31
2022-08-20T23:47:52.087Z,15.28
2022-08-20T23:50:53.700Z,15.24
2022-08-20T23:53:55.707Z,15.18
2022-08-20T23:56:58.904Z,15.16
